EFMA/MHQ METAR and TAF weather

Enter ICAO airport designator
Station Type Date Time Source
EFMA METAR 2021/02/25 15:50 UTC NOAA

EFMA 251550Z AUTO 23011KT 190V270 9999 BKN018 08/06 Q1006


Station Type Date Time Source
EFMA Decoded METAR 2021/02/25 15:50 UTC NOAA

Mariehamn / Aland Island, Finland (EFMA) 60-07N 019-54E
Feb 25, 2021 - 10:50 AM EST / 2021.02.25 1550 UTC
Wind: from the SW (230 degrees) at 13 MPH (11 KT) (direction variable):0
Visibility: greater than 7 mile(s):0
Sky conditions: mostly cloudy
Temperature: 46 F (8 C)
Dew Point: 42 F (6 C)
Relative Humidity: 87%
Pressure (altimeter): 29.71 in. Hg (1006 hPa)
ob: EFMA 251550Z AUTO 23011KT 190V270 9999 BKN018 08/06 Q1006
cycle: 16

Station Type Date Time Source
EFMA TAF 2014/05/01 21:18 UTC NOAA

TAF TAF EFMA 302037Z 3021/0106 08008KT CAVOK
TEMPO 3023/0101 02010KT 6000 RASN
BECMG 0101/0103 01012KT 4000 RASN BKN010 OVC025

Example: see airport list